createdAt,value
2018-09-10T00:01:13.439Z,12.40
2018-09-10T00:03:40.697Z,12.40
2018-09-10T00:06:08.025Z,12.10
2018-09-10T00:08:35.421Z,11.90
2018-09-10T00:11:02.730Z,11.90
2018-09-10T00:13:30.005Z,11.90
2018-09-10T00:15:57.277Z,12.00
2018-09-10T00:18:24.565Z,12.10
2018-09-10T00:20:51.833Z,12.30
2018-09-10T00:23:19.130Z,12.30
2018-09-10T00:25:46.405Z,12.30
2018-09-10T00:28:13.705Z,12.20
2018-09-10T00:30:40.985Z,12.20
2018-09-10T00:33:08.273Z,12.30
2018-09-10T00:35:35.553Z,12.30
2018-09-10T00:38:02.887Z,12.30
2018-09-10T00:40:30.153Z,12.30
2018-09-10T00:42:57.468Z,12.30
2018-09-10T00:45:24.753Z,12.20
2018-09-10T00:47:52.014Z,12.20
2018-09-10T00:50:19.287Z,12.10
2018-09-10T00:52:46.554Z,12.10
2018-09-10T00:55:13.854Z,12.10
2018-09-10T00:57:41.143Z,12.10
2018-09-10T01:00:08.463Z,12.20
2018-09-10T01:02:35.752Z,12.20
2018-09-10T01:05:03.080Z,12.10
2018-09-10T01:07:30.365Z,12.00
2018-09-10T01:09:57.665Z,12.00
2018-09-10T01:12:24.961Z,12.10
2018-09-10T01:14:52.224Z,12.20
2018-09-10T01:17:19.500Z,12.20
2018-09-10T01:19:46.781Z,12.20
2018-09-10T01:22:14.068Z,12.20
2018-09-10T01:24:41.381Z,12.10
2018-09-10T01:27:08.637Z,12.00
2018-09-10T01:29:36.005Z,11.90
2018-09-10T01:32:03.288Z,11.90
2018-09-10T01:34:36.201Z,11.90
2018-09-10T01:37:03.473Z,11.70
2018-09-10T01:39:30.765Z,11.50
2018-09-10T01:41:58.017Z,11.50
2018-09-10T01:44:25.285Z,11.60
2018-09-10T01:46:52.561Z,11.80
2018-09-10T01:49:19.833Z,11.90
2018-09-10T01:51:47.126Z,12.10
2018-09-10T01:54:14.397Z,11.90
2018-09-10T01:56:41.733Z,11.90
2018-09-10T01:59:08.950Z,11.90
2018-09-10T02:01:36.150Z,11.80
2018-09-10T02:04:03.378Z,11.80
2018-09-10T02:06:30.597Z,11.80
2018-09-10T02:08:57.813Z,11.70
2018-09-10T02:11:25.029Z,11.70
2018-09-10T02:13:52.377Z,11.60
2018-09-10T02:16:19.603Z,11.60
2018-09-10T02:18:47.038Z,11.60
2018-09-10T02:21:14.617Z,11.70
2018-09-10T02:23:41.945Z,11.70
2018-09-10T02:26:09.077Z,11.60
2018-09-10T02:28:36.289Z,11.70
2018-09-10T02:31:03.794Z,11.60
2018-09-10T02:33:31.048Z,11.60
2018-09-10T02:35:58.284Z,11.50
2018-09-10T02:38:25.544Z,11.60
2018-09-10T02:40:52.718Z,11.60
2018-09-10T02:43:19.934Z,11.50
2018-09-10T02:45:47.141Z,11.50
2018-09-10T02:48:14.345Z,11.50
2018-09-10T02:50:41.624Z,11.50
2018-09-10T02:53:08.849Z,11.60
2018-09-10T02:55:36.053Z,11.60
2018-09-10T02:58:03.625Z,11.50
2018-09-10T03:00:30.941Z,11.50
2018-09-10T03:02:58.228Z,11.50
2018-09-10T03:05:25.486Z,11.40
2018-09-10T03:07:52.749Z,11.40
2018-09-10T03:10:21.469Z,11.40
2018-09-10T03:12:48.804Z,11.40
2018-09-10T03:15:16.052Z,11.40
2018-09-10T03:17:43.341Z,11.50
2018-09-10T03:20:10.597Z,11.40
2018-09-10T03:22:37.869Z,11.30
2018-09-10T03:25:05.231Z,11.40
2018-09-10T03:27:32.540Z,11.30
2018-09-10T03:29:59.828Z,11.20
2018-09-10T03:32:27.139Z,11.10
2018-09-10T03:34:54.396Z,11.10
2018-09-10T03:37:21.657Z,11.20
2018-09-10T03:39:48.920Z,11.30
2018-09-10T03:42:16.186Z,11.20
2018-09-10T03:44:43.489Z,11.20
2018-09-10T03:47:10.763Z,11.10
2018-09-10T03:49:38.030Z,11.10
2018-09-10T03:52:05.317Z,11.00
2018-09-10T03:54:32.616Z,10.90
2018-09-10T03:56:59.842Z,10.90
2018-09-10T03:59:27.057Z,10.70
2018-09-10T04:01:54.278Z,10.60
2018-09-10T04:04:21.506Z,10.70
2018-09-10T04:06:48.697Z,10.80
2018-09-10T04:09:15.921Z,10.90
2018-09-10T04:11:43.111Z,11.00
2018-09-10T04:14:10.335Z,11.00
2018-09-10T04:16:37.545Z,10.90
2018-09-10T04:19:04.829Z,10.90
2018-09-10T04:21:32.097Z,10.70
2018-09-10T04:23:59.313Z,10.50
2018-09-10T04:26:26.534Z,10.60
2018-09-10T04:28:53.737Z,10.60
2018-09-10T04:31:20.953Z,10.40
2018-09-10T04:33:48.178Z,10.30
2018-09-10T04:36:15.469Z,10.20
2018-09-10T04:38:42.689Z,10.20
2018-09-10T04:41:09.891Z,10.40
2018-09-10T04:43:37.114Z,10.40
2018-09-10T04:46:04.336Z,10.60
2018-09-10T04:48:31.634Z,10.70
2018-09-10T04:50:58.861Z,10.50
2018-09-10T04:53:26.425Z,10.40
2018-09-10T04:55:53.753Z,10.40
2018-09-10T04:58:20.977Z,10.40
2018-09-10T05:00:48.294Z,10.40
2018-09-10T05:03:15.520Z,10.30
2018-09-10T05:05:42.846Z,10.30
2018-09-10T05:08:10.069Z,10.30
2018-09-10T05:10:37.290Z,10.50
2018-09-10T05:13:04.624Z,10.70
2018-09-10T05:15:31.854Z,10.70
2018-09-10T05:17:59.091Z,10.70
2018-09-10T05:20:26.326Z,10.80
2018-09-10T05:22:53.545Z,10.80
2018-09-10T05:25:20.762Z,10.70
2018-09-10T05:27:47.977Z,10.60
2018-09-10T05:30:15.762Z,10.50
2018-09-10T05:32:42.997Z,10.70
2018-09-10T05:35:10.254Z,10.80
2018-09-10T05:37:37.468Z,10.60
2018-09-10T05:40:06.191Z,10.80
2018-09-10T05:42:33.481Z,10.90
2018-09-10T05:45:00.777Z,10.90
2018-09-10T05:47:28.148Z,11.00
2018-09-10T05:49:55.437Z,12.30
2018-09-10T05:52:22.641Z,11.20
2018-09-10T05:54:49.849Z,11.30
2018-09-10T05:57:17.176Z,11.30
2018-09-10T05:59:44.386Z,11.40
2018-09-10T06:02:11.601Z,11.50
2018-09-10T06:04:38.797Z,11.60
2018-09-10T06:07:06.021Z,11.70
2018-09-10T06:09:33.232Z,11.80
2018-09-10T06:12:00.469Z,11.80
2018-09-10T06:14:27.688Z,11.90
2018-09-10T06:16:54.990Z,11.90
2018-09-10T06:19:22.197Z,12.10
2018-09-10T06:21:49.426Z,12.20
2018-09-10T06:24:16.629Z,12.30
2018-09-10T06:26:43.909Z,12.30
2018-09-10T06:29:11.259Z,12.50
2018-09-10T06:31:38.525Z,12.50
2018-09-10T06:34:05.822Z,12.60
2018-09-10T06:36:33.006Z,12.60
2018-09-10T06:39:01.364Z,12.70
2018-09-10T06:41:28.602Z,12.70
2018-09-10T06:43:56.042Z,12.90
2018-09-10T06:46:23.291Z,13.00
2018-09-10T06:48:50.494Z,13.00
2018-09-10T06:51:17.706Z,13.00
2018-09-10T06:53:44.943Z,13.10
2018-09-10T06:56:12.147Z,13.20
2018-09-10T06:58:39.842Z,13.30
2018-09-10T07:01:07.050Z,13.30
2018-09-10T07:03:34.277Z,13.40
2018-09-10T07:06:01.642Z,13.50
2018-09-10T07:08:28.877Z,13.50
2018-09-10T07:10:56.134Z,13.50
2018-09-10T07:13:23.883Z,13.70
2018-09-10T07:15:51.278Z,13.70
2018-09-10T07:18:18.519Z,13.80
2018-09-10T07:20:45.753Z,13.80
2018-09-10T07:23:12.970Z,13.90
2018-09-10T07:25:40.287Z,13.90
2018-09-10T07:28:07.605Z,14.10
2018-09-10T07:30:34.813Z,14.10
2018-09-10T07:33:02.041Z,14.30
2018-09-10T07:35:29.263Z,14.40
2018-09-10T07:37:56.477Z,14.40
2018-09-10T07:40:23.714Z,14.50
2018-09-10T07:42:50.945Z,14.60
2018-09-10T07:45:18.221Z,14.70
2018-09-10T07:47:45.497Z,14.80
2018-09-10T07:50:12.709Z,14.80
2018-09-10T07:52:39.913Z,14.90
2018-09-10T07:55:07.162Z,15.00
2018-09-10T07:57:34.496Z,15.10
2018-09-10T08:00:02.030Z,15.10
2018-09-10T08:02:29.457Z,15.20
2018-09-10T08:04:56.726Z,15.30
2018-09-10T08:07:23.989Z,15.40
2018-09-10T08:09:51.674Z,15.50
2018-09-10T08:12:18.934Z,15.60
2018-09-10T08:14:46.205Z,15.80
2018-09-10T08:17:13.628Z,15.90
2018-09-10T08:19:40.901Z,16.00
2018-09-10T08:22:08.342Z,16.10
2018-09-10T08:24:35.619Z,16.20
2018-09-10T08:27:02.972Z,16.30
2018-09-10T08:29:30.413Z,16.50
2018-09-10T08:31:57.848Z,16.70
2018-09-10T08:34:25.109Z,16.80
2018-09-10T08:36:52.445Z,16.90
2018-09-10T08:39:19.853Z,17.10
2018-09-10T08:41:47.202Z,17.20
2018-09-10T08:44:14.461Z,17.30
2018-09-10T08:46:41.791Z,17.40
2018-09-10T08:49:09.152Z,17.50
2018-09-10T08:51:36.485Z,17.60
2018-09-10T08:54:03.785Z,17.80
2018-09-10T08:56:31.054Z,17.80
2018-09-10T08:58:58.283Z,17.90
2018-09-10T09:01:25.585Z,18.00
2018-09-10T09:03:52.870Z,18.20
2018-09-10T09:06:20.151Z,18.30
2018-09-10T09:08:47.329Z,18.40
2018-09-10T09:11:14.537Z,18.50
2018-09-10T09:13:41.746Z,18.60
2018-09-10T09:16:08.993Z,18.70
2018-09-10T09:18:36.239Z,18.80
2018-09-10T09:21:03.473Z,18.90
2018-09-10T09:23:30.783Z,18.90
2018-09-10T09:25:58.430Z,19.00
2018-09-10T09:28:25.640Z,19.10
2018-09-10T09:30:52.900Z,19.10
2018-09-10T09:33:20.109Z,19.20
2018-09-10T09:35:53.147Z,19.30
2018-09-10T09:38:26.017Z,19.40
2018-09-10T09:40:58.849Z,19.50
2018-09-10T09:43:32.104Z,19.60
2018-09-10T09:46:05.021Z,19.80
2018-09-10T09:48:32.262Z,19.90
2018-09-10T09:50:59.485Z,20.10
2018-09-10T09:53:26.705Z,20.20
2018-09-10T09:55:53.929Z,20.30
2018-09-10T09:58:21.227Z,20.30
2018-09-10T10:00:52.531Z,20.40
2018-09-10T10:03:25.567Z,20.50
2018-09-10T10:05:52.763Z,20.50
2018-09-10T10:08:19.981Z,20.70
2018-09-10T10:10:47.182Z,20.70
2018-09-10T10:13:14.428Z,20.80
2018-09-10T10:15:41.663Z,20.90
2018-09-10T10:18:08.881Z,21.00
2018-09-10T10:20:36.130Z,21.10
2018-09-10T10:23:03.401Z,21.20
2018-09-10T10:25:30.625Z,21.20
2018-09-10T10:27:57.881Z,21.20
2018-09-10T10:30:25.123Z,21.20
2018-09-10T10:32:52.330Z,21.20
2018-09-10T10:35:19.543Z,21.30
2018-09-10T10:37:46.777Z,21.40
2018-09-10T10:40:13.978Z,21.50
2018-09-10T10:42:41.213Z,21.60
2018-09-10T10:45:08.486Z,21.70
2018-09-10T10:47:35.699Z,21.80
2018-09-10T10:50:03.102Z,21.80
2018-09-10T10:52:30.374Z,21.80
2018-09-10T10:54:57.633Z,21.80
2018-09-10T10:57:24.933Z,21.90
2018-09-10T10:59:52.238Z,22.00
2018-09-10T11:02:19.503Z,22.00
2018-09-10T11:04:46.826Z,22.20
2018-09-10T11:07:14.112Z,22.30
2018-09-10T11:09:41.393Z,22.30
2018-09-10T11:12:08.646Z,22.30
2018-09-10T11:14:35.930Z,22.40
2018-09-10T11:17:03.214Z,22.40
2018-09-10T11:19:30.505Z,22.40
2018-09-10T11:21:57.781Z,22.50
2018-09-10T11:24:25.070Z,22.50
2018-09-10T11:26:52.333Z,22.60
2018-09-10T11:29:19.645Z,22.60
2018-09-10T11:31:46.901Z,22.70
2018-09-10T11:34:14.175Z,22.70
2018-09-10T11:36:41.434Z,22.70
2018-09-10T11:39:08.713Z,22.70
2018-09-10T11:41:36.003Z,22.70
2018-09-10T11:44:03.289Z,22.70
2018-09-10T11:46:30.565Z,22.70
2018-09-10T11:48:57.883Z,22.70
2018-09-10T11:51:25.313Z,22.70
2018-09-10T11:53:52.582Z,22.80
2018-09-10T11:56:19.850Z,22.80
2018-09-10T11:58:47.194Z,22.80
2018-09-10T12:01:15.517Z,22.80
2018-09-10T12:03:42.836Z,22.90
2018-09-10T12:06:10.126Z,23.00
2018-09-10T12:08:37.474Z,23.00
2018-09-10T12:11:05.124Z,23.10
2018-09-10T12:13:32.452Z,23.20
2018-09-10T12:15:59.781Z,23.20
2018-09-10T12:18:27.217Z,23.20
2018-09-10T12:20:54.491Z,23.20
2018-09-10T12:23:21.753Z,23.20
2018-09-10T12:25:49.261Z,23.30
2018-09-10T12:28:17.513Z,23.30
2018-09-10T12:30:44.781Z,23.30
2018-09-10T12:33:12.061Z,23.40
2018-09-10T12:35:39.452Z,23.50
2018-09-10T12:38:06.808Z,23.50
2018-09-10T12:40:34.091Z,23.40
2018-09-10T12:43:01.357Z,23.60
2018-09-10T12:45:28.622Z,23.60
2018-09-10T12:47:56.146Z,23.60
2018-09-10T12:50:23.420Z,23.60
2018-09-10T12:52:50.690Z,23.60
2018-09-10T12:55:17.953Z,23.70
2018-09-10T12:57:45.212Z,23.70
2018-09-10T13:00:12.562Z,23.80
2018-09-10T13:02:39.881Z,23.80
2018-09-10T13:05:07.157Z,23.70
2018-09-10T13:07:34.465Z,23.70
2018-09-10T13:10:01.787Z,23.70
2018-09-10T13:12:29.050Z,23.80
2018-09-10T13:14:56.325Z,23.90
2018-09-10T13:17:23.802Z,23.80
2018-09-10T13:19:51.055Z,24.10
2018-09-10T13:22:18.349Z,24.00
2018-09-10T13:24:45.708Z,24.00
2018-09-10T13:27:12.978Z,24.00
2018-09-10T13:29:40.251Z,23.90
2018-09-10T13:32:08.291Z,23.90
2018-09-10T13:34:35.735Z,23.90
2018-09-10T13:37:03.088Z,24.00
2018-09-10T13:39:31.174Z,24.10
2018-09-10T13:41:58.446Z,24.10
2018-09-10T13:44:25.726Z,24.10
2018-09-10T13:46:52.997Z,24.10
2018-09-10T13:49:21.397Z,24.10
2018-09-10T13:51:48.770Z,24.00
2018-09-10T13:54:16.122Z,24.00
2018-09-10T13:56:43.386Z,23.90
2018-09-10T13:59:10.615Z,23.90
2018-09-10T14:01:37.814Z,24.00
2018-09-10T14:04:05.077Z,24.00
2018-09-10T14:06:32.300Z,24.10
2018-09-10T14:09:00.151Z,24.20
2018-09-10T14:11:27.377Z,24.30
2018-09-10T14:13:55.785Z,24.30
2018-09-10T14:16:23.077Z,24.20
2018-09-10T14:18:50.286Z,24.20
2018-09-10T14:21:18.394Z,24.20
2018-09-10T14:23:45.719Z,24.10
2018-09-10T14:26:12.970Z,24.20
2018-09-10T14:28:40.324Z,24.10
2018-09-10T14:31:07.543Z,24.00
2018-09-10T14:33:34.794Z,24.00
2018-09-10T14:36:02.042Z,23.90
2018-09-10T14:38:29.309Z,23.90
2018-09-10T14:40:56.590Z,23.80
2018-09-10T14:43:23.827Z,23.80
2018-09-10T14:45:51.261Z,23.70
2018-09-10T14:48:18.490Z,23.70
2018-09-10T14:50:45.702Z,23.70
2018-09-10T14:53:12.939Z,23.60
2018-09-10T14:55:40.166Z,23.60
2018-09-10T14:58:07.393Z,23.60
2018-09-10T15:00:36.728Z,23.50
2018-09-10T15:03:03.991Z,23.50
2018-09-10T15:05:31.277Z,23.40
2018-09-10T15:07:58.553Z,23.40
2018-09-10T15:10:25.881Z,23.40
2018-09-10T15:12:53.127Z,23.40
2018-09-10T15:15:20.407Z,23.40
2018-09-10T15:17:47.653Z,23.30
2018-09-10T15:20:14.977Z,23.30
2018-09-10T15:22:42.218Z,23.30
2018-09-10T15:25:09.489Z,23.20
2018-09-10T15:27:36.746Z,23.20
2018-09-10T15:30:05.566Z,23.20
2018-09-10T15:32:32.837Z,23.10
2018-09-10T15:35:00.222Z,23.10
2018-09-10T15:37:27.501Z,23.00
2018-09-10T15:39:54.713Z,23.00
2018-09-10T15:42:21.926Z,23.00
2018-09-10T15:44:49.158Z,23.00
2018-09-10T15:47:16.438Z,22.90
2018-09-10T15:49:43.642Z,22.90
2018-09-10T15:52:10.869Z,22.90
2018-09-10T15:54:38.174Z,22.90
2018-09-10T15:57:05.446Z,22.90
2018-09-10T15:59:32.684Z,22.90
2018-09-10T16:01:59.911Z,22.90
2018-09-10T16:04:27.133Z,22.80
2018-09-10T16:06:54.435Z,22.80
2018-09-10T16:09:21.702Z,22.80
2018-09-10T16:11:48.945Z,22.80
2018-09-10T16:14:16.140Z,22.80
2018-09-10T16:16:43.461Z,22.80
2018-09-10T16:19:10.649Z,22.80
2018-09-10T16:21:37.861Z,22.80
2018-09-10T16:24:05.109Z,22.80
2018-09-10T16:26:32.312Z,22.80
2018-09-10T16:28:59.738Z,22.70
2018-09-10T16:31:26.939Z,22.70
2018-09-10T16:33:54.199Z,22.70
2018-09-10T16:36:21.394Z,22.60
2018-09-10T16:38:48.665Z,22.60
2018-09-10T16:41:15.986Z,22.60
2018-09-10T16:43:43.250Z,22.50
2018-09-10T16:46:10.446Z,22.50
2018-09-10T16:48:37.827Z,22.40
2018-09-10T16:51:05.035Z,22.30
2018-09-10T16:53:32.245Z,22.30
2018-09-10T16:55:59.458Z,22.30
2018-09-10T16:58:27.170Z,22.20
2018-09-10T17:00:55.599Z,22.20
2018-09-10T17:03:22.918Z,22.20
2018-09-10T17:05:50.166Z,22.20
2018-09-10T17:08:17.387Z,22.20
2018-09-10T17:10:44.697Z,22.20
2018-09-10T17:13:11.804Z,22.20
2018-09-10T17:15:39.230Z,22.20
2018-09-10T17:18:06.504Z,22.20
2018-09-10T17:20:33.749Z,22.20
2018-09-10T17:23:01.122Z,22.20
2018-09-10T17:25:28.326Z,22.20
2018-09-10T17:27:55.537Z,22.20
2018-09-10T17:30:22.844Z,22.20
2018-09-10T17:32:50.217Z,22.20
2018-09-10T17:35:17.447Z,22.20
2018-09-10T17:37:44.722Z,22.20
2018-09-10T17:40:12.042Z,22.20
2018-09-10T17:42:39.238Z,22.20
2018-09-10T17:45:06.502Z,22.20
2018-09-10T17:47:33.756Z,22.10
2018-09-10T17:50:01.081Z,22.10
2018-09-10T17:52:28.301Z,22.00
2018-09-10T17:54:55.592Z,22.00
2018-09-10T17:57:22.815Z,22.00
2018-09-10T17:59:50.133Z,22.00
2018-09-10T18:02:17.341Z,22.00
2018-09-10T18:04:44.625Z,22.00
2018-09-10T18:07:12.229Z,21.90
2018-09-10T18:09:39.466Z,21.90
2018-09-10T18:12:06.725Z,21.80
2018-09-10T18:14:33.990Z,21.70
2018-09-10T18:17:01.193Z,21.70
2018-09-10T18:19:28.457Z,21.60
2018-09-10T18:21:55.756Z,21.50
2018-09-10T18:24:22.994Z,21.40
2018-09-10T18:26:50.265Z,21.30
2018-09-10T18:29:17.930Z,21.30
2018-09-10T18:31:45.303Z,21.10
2018-09-10T18:34:12.561Z,21.00
2018-09-10T18:36:39.750Z,21.00
2018-09-10T18:39:08.457Z,20.90
2018-09-10T18:41:35.668Z,20.90
2018-09-10T18:44:02.915Z,20.70
2018-09-10T18:46:30.157Z,20.60
2018-09-10T18:48:58.597Z,20.50
2018-09-10T18:51:25.798Z,20.40
2018-09-10T18:53:53.022Z,20.30
2018-09-10T18:56:20.270Z,20.30
2018-09-10T18:58:47.493Z,20.30
2018-09-10T19:01:15.073Z,20.20
2018-09-10T19:03:42.026Z,20.10
2018-09-10T19:06:09.707Z,20.10
2018-09-10T19:08:37.033Z,20.10
2018-09-10T19:11:04.238Z,20.00
2018-09-10T19:13:31.732Z,20.10
2018-09-10T19:15:58.974Z,20.10
2018-09-10T19:18:32.190Z,20.10
2018-09-10T19:20:59.540Z,20.00
2018-09-10T19:23:26.749Z,20.00
2018-09-10T19:25:57.121Z,19.90
2018-09-10T19:28:24.430Z,19.90
2018-09-10T19:30:51.686Z,19.90
2018-09-10T19:33:19.002Z,19.90
2018-09-10T19:35:46.305Z,19.80
2018-09-10T19:38:13.513Z,19.80
2018-09-10T19:40:40.753Z,19.70
2018-09-10T19:43:07.972Z,19.60
2018-09-10T19:45:35.250Z,19.60
2018-09-10T19:48:02.522Z,19.60
2018-09-10T19:50:30.830Z,19.60
2018-09-10T19:52:58.050Z,19.50
2018-09-10T19:55:25.278Z,19.50
2018-09-10T19:57:52.572Z,19.50
2018-09-10T20:00:19.929Z,19.40
2018-09-10T20:02:47.211Z,19.30
2018-09-10T20:05:14.627Z,19.30
2018-09-10T20:07:42.017Z,19.30
2018-09-10T20:10:09.399Z,19.10
2018-09-10T20:12:36.881Z,19.00
2018-09-10T20:15:04.960Z,18.90
2018-09-10T20:17:32.297Z,18.70
2018-09-10T20:19:59.562Z,18.90
2018-09-10T20:22:26.861Z,18.90
2018-09-10T20:24:54.110Z,18.80
2018-09-10T20:27:21.414Z,18.80
2018-09-10T20:29:48.685Z,18.80
2018-09-10T20:32:15.997Z,18.70
2018-09-10T20:34:43.374Z,18.70
2018-09-10T20:37:11.029Z,18.60
2018-09-10T20:39:38.508Z,18.60
2018-09-10T20:42:05.785Z,18.40
2018-09-10T20:44:33.069Z,18.40
2018-09-10T20:47:00.342Z,18.40
2018-09-10T20:49:27.610Z,18.40
2018-09-10T20:51:54.950Z,18.40
2018-09-10T20:54:22.213Z,18.40
2018-09-10T20:56:49.473Z,18.40
2018-09-10T20:59:16.789Z,18.30
2018-09-10T21:01:44.119Z,18.10
2018-09-10T21:04:11.370Z,18.00
2018-09-10T21:06:38.702Z,17.90
2018-09-10T21:09:07.534Z,18.00
2018-09-10T21:11:34.878Z,18.00
2018-09-10T21:14:02.202Z,17.90
2018-09-10T21:16:29.476Z,17.80
2018-09-10T21:18:56.741Z,17.80
2018-09-10T21:21:24.796Z,17.80
2018-09-10T21:23:52.201Z,17.70
2018-09-10T21:26:19.445Z,17.70
2018-09-10T21:28:46.725Z,17.60
2018-09-10T21:31:14.189Z,17.50
2018-09-10T21:33:41.473Z,17.50
2018-09-10T21:36:08.729Z,17.60
2018-09-10T21:38:36.254Z,17.50
2018-09-10T21:41:03.557Z,17.50
2018-09-10T21:43:30.829Z,17.50
2018-09-10T21:45:58.093Z,17.50
2018-09-10T21:48:27.214Z,17.50
2018-09-10T21:50:54.488Z,17.30
2018-09-10T21:53:21.940Z,17.30
2018-09-10T21:55:49.270Z,17.20
2018-09-10T21:58:16.621Z,17.20
2018-09-10T22:00:49.647Z,17.30
2018-09-10T22:03:16.905Z,17.40
2018-09-10T22:05:44.175Z,17.40
2018-09-10T22:08:11.449Z,17.40
2018-09-10T22:10:38.749Z,17.30
2018-09-10T22:13:06.209Z,17.30
2018-09-10T22:15:33.485Z,17.40
2018-09-10T22:18:00.807Z,17.10
2018-09-10T22:20:28.359Z,16.90
2018-09-10T22:22:55.908Z,16.90
2018-09-10T22:25:23.197Z,16.80
2018-09-10T22:27:50.445Z,16.80
2018-09-10T22:30:17.709Z,16.80
2018-09-10T22:32:44.981Z,16.70
2018-09-10T22:35:12.277Z,16.80
2018-09-10T22:37:39.605Z,16.90
2018-09-10T22:40:07.077Z,16.80
2018-09-10T22:42:34.341Z,16.70
2018-09-10T22:45:02.232Z,16.70
2018-09-10T22:47:29.493Z,16.70
2018-09-10T22:49:57.234Z,16.70
2018-09-10T22:52:24.493Z,16.70
2018-09-10T22:54:51.969Z,16.70
2018-09-10T22:57:19.176Z,16.70
2018-09-10T22:59:46.389Z,16.60
2018-09-10T23:02:15.018Z,16.70
2018-09-10T23:04:42.225Z,16.60
2018-09-10T23:07:09.434Z,16.50
2018-09-10T23:09:36.662Z,16.50
2018-09-10T23:12:03.966Z,16.40
2018-09-10T23:14:31.165Z,16.40
2018-09-10T23:16:58.457Z,16.40
2018-09-10T23:19:25.663Z,16.40
2018-09-10T23:21:52.886Z,16.40
2018-09-10T23:24:20.174Z,16.40
2018-09-10T23:26:47.417Z,16.20
2018-09-10T23:29:14.669Z,16.10
2018-09-10T23:31:41.873Z,16.10
2018-09-10T23:34:09.093Z,16.00
2018-09-10T23:36:36.307Z,16.00
2018-09-10T23:39:05.365Z,16.00
2018-09-10T23:41:32.577Z,16.00
2018-09-10T23:43:59.775Z,15.90
2018-09-10T23:46:26.989Z,15.80
2018-09-10T23:48:54.282Z,15.70
2018-09-10T23:51:21.501Z,15.60
2018-09-10T23:53:48.713Z,15.60
2018-09-10T23:56:16.045Z,15.70
2018-09-10T23:58:43.390Z,15.90
